Time;durP1;ratioP1;P1;durP2;ratioP2;P2;SDS_P1;SDS_P2;PMS_P1;PMS_P2;Temp;Humidity;BMP_temperature;BMP_pressure;BME280_temperature;BME280_humidity;BME280_pressure;Samples;Min_cycle;Max_cycle;Signal;HPM_P1;HPM_P2
2023/04/10 00:00:55;;;;;;;;;;;;;;;;;;;;;
2023/04/10 00:04:32;;;;;;;;;;;;;;;;;;;;;
2023/04/10 00:07:59;;;;;;;25.40;17.60;;;;;;;7.68;94.97;101536.52;104847;1265;83402;-62
2023/04/10 00:11:13;;;;;;;29.50;18.90;;;;;;;7.66;94.92;101535.30;104767;1263;73725;-60
2023/04/10 00:18:04;;;;;;;29.00;20.50;;;;;;;7.60;95.02;101536.20;104960;1263;69221;-59
2023/04/10 00:21:34;;;;;;;25.90;18.70;;;;;;;7.59;94.93;101531.17;104964;1265;74071;-59
2023/04/10 00:24:47;;;;;;;;;;;;;;;;;;;;;
2023/04/10 00:28:18;;;;;;;31.90;20.10;;;;;;;7.56;94.77;101530.66;104902;1262;71498;-59
2023/04/10 00:31:32;;;;;;;;;;;;;;;;;;;;;
2023/04/10 00:35:07;;;;;;;30.00;20.50;;;;;;;7.54;94.44;101531.55;104864;1265;69227;-59
2023/04/10 00:38:17;;;;;;;34.90;22.50;;;;;;;7.54;95.26;101528.42;104972;1264;73132;-59
2023/04/10 00:42:02;;;;;;;;;;;;;;;;;;;;;
2023/04/10 00:45:17;;;;;;;;;;;;;;;;;;;;;
2023/04/10 00:48:45;;;;;;;32.50;21.80;;;;;;;7.49;94.46;101520.45;105155;1256;69123;-62
2023/04/10 00:52:18;;;;;;;38.40;24.20;;;;;;;7.46;94.90;101514.39;105066;1259;70921;-59
2023/04/10 00:55:33;;;;;;;;;;;;;;;;;;;;;
2023/04/10 00:59:07;;;;;;;28.60;19.10;;;;;;;7.37;94.65;101514.77;104973;1261;83424;-59
2023/04/10 01:02:20;;;;;;;27.10;18.20;;;;;;;7.33;94.83;101517.25;104939;1259;73911;-59
2023/04/10 01:05:49;;;;;;;39.90;25.80;;;;;;;7.30;94.90;101518.13;105213;1261;69209;-60
2023/04/10 01:09:38;;;;;;;;;;;;;;;;;;;;;
2023/04/10 01:13:39;;;;;;;;;;;;;;;;;;;;;
2023/04/10 01:17:01;;;;;;;31.40;19.90;;;;;;;7.33;95.04;101509.77;104478;1271;83489;-62
2023/04/10 01:20:42;;;;;;;;;;;;;;;;;;;;;
2023/04/10 01:28:47;;;;;;;27.30;18.10;;;;;;;7.37;95.49;101508.52;102705;1283;69143;-59
2023/04/10 01:36:02;;;;;;;;;;;;;;;;;;;;;
2023/04/10 01:39:27;;;;;;;;;;;;;;;;;;;;;
2023/04/10 01:42:54;;;;;;;24.50;17.30;;;;;;;7.18;95.29;101500.81;101678;1301;69326;-62
2023/04/10 01:46:44;;;;;;;;;;;;;;;;;;;;;
2023/04/10 01:50:07;;;;;;;23.00;17.70;;;;;;;7.12;95.08;101498.58;102379;1288;601394;-60
2023/04/10 01:53:27;;;;;;;;;;;;;;;;;;;;;
2023/04/10 01:56:45;;;;;;;23.70;16.40;;;;;;;7.02;95.12;101503.50;104407;1272;69240;-62
2023/04/10 01:59:56;;;;;;;23.40;17.10;;;;;;;7.01;95.45;101509.07;104467;1273;71187;-62
2023/04/10 02:03:15;;;;;;;25.40;17.70;;;;;;;6.96;94.88;101507.00;100767;1263;5436476;-60
2023/04/10 02:07:02;;;;;;;28.90;19.00;;;;;;;6.96;95.51;101505.09;104777;1264;73875;-62
2023/04/10 02:10:37;;;;;;;22.80;16.50;;;;;;;6.97;95.86;101504.04;103702;1281;69350;-60
2023/04/10 02:13:58;;;;;;;20.90;16.10;;;;;;;6.92;95.50;101503.02;102482;1290;69470;-61
2023/04/10 02:17:19;;;;;;;22.80;17.20;;;;;;;6.85;95.04;101500.96;102521;1293;72538;-59
2023/04/10 02:20:54;;;;;;;26.90;18.50;;;;;;;6.80;95.10;101506.73;102099;1295;82505;-59
2023/04/10 02:24:16;;;;;;;27.10;19.60;;;;;;;6.79;95.68;101505.50;102334;1294;73866;-62
2023/04/10 02:27:18;;;;;;;25.60;18.10;;;;;;;6.72;95.10;101505.52;102423;1292;69352;-64
2023/04/10 02:30:42;;;;;;;25.10;18.20;;;;;;;6.67;95.27;101513.54;102383;1294;69438;-60
2023/04/10 02:34:09;;;;;;;;;;;;;;;;;;;;;
2023/04/10 02:37:37;;;;;;;29.60;19.00;;;;;;;6.55;94.62;101518.60;102318;1290;83637;-60
2023/04/10 02:40:59;;;;;;;;;;;;;;;;;;;;;
2023/04/10 02:44:23;;;;;;;27.20;17.60;;;;;;;6.42;94.41;101523.67;102270;1288;69291;-60
2023/04/10 02:47:38;;;;;;;25.70;18.10;;;;;;;6.35;94.18;101523.33;104163;1271;69514;-59
2023/04/10 02:51:04;;;;;;;27.40;19.00;;;;;;;6.25;94.40;101530.46;104571;1264;73365;-61
2023/04/10 02:54:42;;;;;;;;;;;;;;;;;;;;;
2023/04/10 02:57:54;;;;;;;;;;;;;;;6.10;94.97;101530.50;104699;1264;73776;-60
2023/04/10 03:01:12;;;;;;;27.20;18.20;;;;;;;6.07;95.10;101535.17;104672;1264;69247;-63
2023/04/10 03:04:28;;;;;;;27.80;18.70;;;;;;;6.00;95.44;101537.94;104590;1269;69577;-61
2023/04/10 03:07:41;;;;;;;28.70;18.50;;;;;;;5.89;94.51;101538.95;104698;1269;73213;-62
2023/04/10 03:10:59;;;;;;;;;;;;;;;;;;;;;
2023/04/10 03:14:41;;;;;;;24.60;17.00;;;;;;;5.72;94.47;101541.19;104645;1264;73630;-62
2023/04/10 03:18:16;;;;;;;29.50;17.80;;;;;;;5.70;94.77;101538.23;104735;1264;69184;-60
2023/04/10 03:21:46;;;;;;;;;;;;;;;;;;;;;
2023/04/10 03:25:37;;;;;;;32.10;20.20;;;;;;;5.78;95.50;101533.05;104645;1264;72998;-59
2023/04/10 03:29:17;;;;;;;24.50;15.80;;;;;;;5.83;96.07;101532.88;104623;1267;82208;-61
2023/04/10 03:32:41;;;;;;;;;;;;;;;;;;;;;
2023/04/10 03:36:07;;;;;;;48.70;21.90;;;;;;;5.86;95.91;101524.55;104535;1269;69263;-60
2023/04/10 03:39:38;;;;;;;26.70;17.00;;;;;;;5.83;95.55;101526.81;104609;1269;69234;-61
2023/04/10 03:43:15;;;;;;;26.20;17.00;;;;;;;5.80;95.73;101525.94;104805;1266;72080;-61
2023/04/10 03:46:29;;;;;;;;;;;;;;;;;;;;;
2023/04/10 03:50:19;;;;;;;42.90;22.90;;;;;;;5.79;95.92;101527.84;104633;1264;71740;-61
2023/04/10 03:53:44;;;;;;;33.30;19.40;;;;;;;5.77;95.94;101530.62;104610;1267;69096;-61
2023/04/10 03:57:18;;;;;;;;;;;;;;;;;;;;;
2023/04/10 04:00:43;;;;;;;24.90;16.70;;;;;;;5.68;95.61;101537.02;104694;1269;73348;-60
2023/04/10 04:04:26;;;;;;;;;;;;;;;;;;;;;
2023/04/10 04:08:12;;;;;;;;;;;;;;;;;;;;;
2023/04/10 04:11:41;;;;;;;29.90;18.80;;;;;;;5.67;96.35;101540.66;104142;1266;69173;-59
2023/04/10 04:15:10;;;;;;;28.00;18.50;;;;;;;5.68;96.29;101543.95;104689;1264;69209;-59
2023/04/10 04:19:02;;;;;;;26.90;17.10;;;;;;;5.69;96.41;101545.86;104677;1269;73422;-63
2023/04/10 04:22:51;;;;;;;31.70;20.50;;;;;;;5.74;96.78;101550.20;104589;1263;82496;-60
2023/04/10 04:26:49;;;;;;;30.10;18.00;;;;;;;5.79;96.88;101554.72;104381;1271;73844;-60
2023/04/10 04:30:39;;;;;;;;;;;;;;;;;;;;;
2023/04/10 04:34:37;;;;;;;24.90;17.60;;;;;;;5.87;97.08;101554.73;104180;1273;69303;-58
2023/04/10 04:38:36;;;;;;;;;;;;;;;;;;;;;
2023/04/10 04:42:08;;;;;;;35.20;19.10;;;;;;;5.73;97.03;101563.91;103548;1283;83379;-57
2023/04/10 04:45:50;;;;;;;;;;;;;;;;;;;;;
2023/04/10 04:49:16;;;;;;;;;;;;;;;;;;;;;
2023/04/10 04:53:12;;;;;;;29.40;19.60;;;;;;;5.76;97.72;101569.30;103005;1286;69365;-60
2023/04/10 04:56:54;;;;;;;;;;;;;;;;;;;;;
2023/04/10 05:00:14;;;;;;;33.50;20.50;;;;;;;5.82;97.75;101581.27;103145;1286;83464;-57
2023/04/10 05:04:15;;;;;;;;;;;;;;;;;;;;;
2023/04/10 05:07:42;;;;;;;27.60;18.50;;;;;;;5.99;98.20;101576.46;102354;1294;600449;-55
2023/04/10 05:10:57;;;;;;;27.40;18.30;;;;;;;6.05;98.24;101582.02;104688;1269;69235;-56
2023/04/10 05:14:04;;;;;;;24.40;17.30;;;;;;;6.13;98.25;101587.40;104494;1267;69164;-55
2023/04/10 05:17:18;;;;;;;;;;;;;;;;;;;;;
2023/04/10 05:20:26;;;;;;;27.80;19.30;;;;;;;6.21;98.36;101591.92;100773;1267;5449719;-57
2023/04/10 05:23:27;;;;;;;26.80;19.70;;;;;;;6.22;98.16;101592.09;104916;1262;69767;-57
2023/04/10 05:26:28;;;;;;;28.90;19.40;;;;;;;6.25;98.11;101592.09;104721;1266;69240;-56
2023/04/10 05:29:50;;;;;;;27.70;19.00;;;;;;;6.33;98.29;101595.39;104809;1264;71591;-54
2023/04/10 05:33:11;;;;;;;25.70;18.40;;;;;;;6.39;98.12;101598.15;104803;1264;84247;-52
2023/04/10 05:39:42;;;;;;;26.70;19.90;;;;;;;6.54;98.38;101597.63;104716;1266;69130;-51
2023/04/10 05:42:40;;;;;;;26.60;19.20;;;;;;;6.64;98.36;101594.14;104744;1264;69131;-53
2023/04/10 05:45:34;;;;;;;25.00;18.10;;;;;;;6.71;98.38;101593.27;104721;1266;72278;-55
2023/04/10 05:48:54;;;;;;;26.00;19.20;;;;;;;6.78;98.28;101592.89;104760;1266;83589;-54
2023/04/10 05:51:58;;;;;;;25.30;18.30;;;;;;;6.87;98.57;101590.95;104784;1263;72848;-53
2023/04/10 05:55:04;;;;;;;25.30;18.50;;;;;;;6.95;98.32;101589.55;104889;1262;69030;-58
2023/04/10 05:58:13;;;;;;;27.40;19.90;;;;;;;7.02;98.44;101589.88;104822;1264;69202;-58
2023/04/10 06:01:09;;;;;;;26.50;20.20;;;;;;;7.09;98.32;101587.41;104915;1264;73305;-58
2023/04/10 06:04:08;;;;;;;28.70;20.70;;;;;;;7.15;98.33;101584.43;104938;1262;83448;-58
2023/04/10 06:07:04;;;;;;;25.30;19.50;;;;;;;7.23;98.04;101583.35;104762;1264;72850;-59
2023/04/10 06:09:58;;;;;;;26.90;19.80;;;;;;;7.30;97.98;101582.11;104721;1266;69322;-58
2023/04/10 06:12:56;;;;;;;26.30;18.10;;;;;;;7.40;98.20;101586.41;104750;1266;69217;-58
2023/04/10 06:15:35;;;;;;;23.60;18.50;;;;;;;7.54;98.62;101589.64;105190;1260;73518;-60
2023/04/10 06:18:16;;;;;;;;;;;;;;;7.64;98.28;101585.58;104739;1264;81561;-59
2023/04/10 06:21:08;;;;;;;30.00;20.80;;;;;;;7.72;98.08;101585.53;104748;1264;73855;-52
2023/04/10 06:23:51;;;;;;;27.70;21.70;;;;;;;7.82;98.34;101585.47;104675;1269;69211;-58
2023/04/10 06:26:29;;;;;;;28.90;22.30;;;;;;;7.91;98.21;101585.40;104826;1263;69195;-58
2023/04/10 06:29:12;;;;;;;31.10;22.50;;;;;;;7.99;98.23;101595.44;104887;1264;73592;-59
2023/04/10 06:31:53;;;;;;;30.50;22.70;;;;;;;8.08;98.16;101604.43;104870;1264;81359;-54
2023/04/10 06:34:53;;;;;;;;;;;;;;;;;;;;;
2023/04/10 06:37:48;;;;;;;27.00;20.60;;;;;;;8.24;97.94;101611.80;104997;1264;69077;-58
2023/04/10 06:40:28;;;;;;;25.80;19.20;;;;;;;8.34;97.92;101611.71;104858;1263;69245;-56
2023/04/10 06:43:05;;;;;;;24.40;18.00;;;;;;;8.43;97.45;101614.98;104879;1264;73103;-58
2023/04/10 06:45:41;;;;;;;23.10;18.20;;;;;;;8.54;97.68;101614.88;105346;1262;83487;-58
2023/04/10 06:48:30;;;;;;;24.50;18.10;;;;;;;8.65;97.71;101617.05;105023;1262;73692;-58
2023/04/10 06:51:27;;;;;;;;;;;;;;;;;;;;;
2023/04/10 06:54:07;;;;;;;22.90;18.10;;;;;;;8.79;96.98;101611.84;105154;1263;69171;-60
2023/04/10 06:56:43;;;;;;;26.60;19.80;;;;;;;8.86;97.23;101611.77;105552;1260;73472;-58
2023/04/10 06:59:21;;;;;;;25.50;19.00;;;;;;;8.96;97.51;101610.28;105044;1263;83931;-53
2023/04/10 07:01:58;;;;;;;26.30;20.30;;;;;;;9.05;97.22;101613.32;105084;1260;72781;-55
2023/04/10 07:04:45;;;;;;;24.10;18.50;;;;;;;9.15;97.22;101613.03;105093;1260;69045;-55
2023/04/10 07:07:21;;;;;;;25.10;18.50;;;;;;;9.30;97.11;101610.73;105417;1260;69985;-55
2023/04/10 07:09:58;;;;;;;26.10;20.00;;;;;;;9.42;96.71;101614.62;105082;1262;72367;-51
2023/04/10 07:12:29;;;;;;;27.40;18.90;;;;;;;9.52;96.61;101620.07;105119;1260;82920;-53
2023/04/10 07:15:07;;;;;;;25.90;19.20;;;;;;;9.62;96.12;101623.06;105073;1261;73979;-53
2023/04/10 07:17:41;;;;;;;26.30;19.40;;;;;;;9.62;95.13;101627.25;105176;1258;69191;-57
2023/04/10 07:20:13;;;;;;;26.50;20.00;;;;;;;9.65;95.38;101627.57;105174;1258;69092;-58
2023/04/10 07:22:50;;;;;;;29.20;21.60;;;;;;;9.74;95.43;101624.83;105126;1260;73772;-55
2023/04/10 07:25:20;;;;;;;28.70;22.00;;;;;;;9.78;94.41;101623.03;105013;1260;82625;-53
2023/04/10 07:27:52;;;;;;;26.20;20.90;;;;;;;9.79;94.15;101622.13;106759;1262;72647;-57
2023/04/10 07:30:24;;;;;;;25.00;19.80;;;;;;;9.85;94.09;101619.44;105115;1263;69209;-59
2023/04/10 07:32:59;;;;;;;25.10;18.80;;;;;;;9.93;93.90;101617.74;105216;1262;69093;-57
2023/04/10 07:35:36;;;;;;;25.40;18.40;;;;;;;9.98;93.79;101617.86;105116;1258;73204;-56
2023/04/10 07:38:22;;;;;;;23.50;18.40;;;;;;;10.04;93.53;101617.23;105566;1257;83760;-55
2023/04/10 07:41:25;;;;;;;25.10;18.60;;;;;;;10.11;93.37;101615.73;105437;1255;73787;-55
2023/04/10 07:44:13;;;;;;;25.80;19.40;;;;;;;10.17;92.86;101614.77;105451;1257;69223;-56
2023/04/10 07:46:51;;;;;;;25.40;19.50;;;;;;;10.19;92.79;101611.05;105436;1254;69176;-59
2023/04/10 07:49:42;;;;;;;27.40;21.20;;;;;;;10.26;93.05;101605.36;105908;1251;73391;-55
2023/04/10 07:52:31;;;;;;;25.90;20.90;;;;;;;10.34;92.87;101605.09;105717;1254;83363;-56
2023/04/10 07:55:14;;;;;;;26.70;21.30;;;;;;;10.35;92.64;101605.75;105691;1252;73709;-55
2023/04/10 07:58:06;;;;;;;25.70;21.30;;;;;;;10.43;92.26;101600.36;105613;1250;69262;-58
2023/04/10 08:00:50;;;;;;;27.40;22.20;;;;;;;10.42;91.55;101599.71;105665;1252;69124;-55
2023/04/10 08:03:39;;;;;;;26.30;19.60;;;;;;;10.48;91.63;101596.63;105661;1251;73390;-55
2023/04/10 08:06:28;;;;;;;25.10;18.50;;;;;;;10.59;91.48;101598.00;105647;1254;82452;-57
2023/04/10 08:09:19;;;;;;;25.90;19.40;;;;;;;10.69;91.31;101601.83;105697;1251;72864;-56
2023/04/10 08:12:01;;;;;;;25.60;19.00;;;;;;;10.77;90.94;101606.95;105670;1251;69176;-54
2023/04/10 08:14:50;;;;;;;25.30;20.10;;;;;;;10.90;91.25;101606.52;105625;1254;69189;-55
2023/04/10 08:17:26;;;;;;;26.30;20.70;;;;;;;11.04;91.54;101599.61;105700;1251;73381;-55
2023/04/10 08:20:07;;;;;;;26.90;21.70;;;;;;;11.21;91.63;101589.83;105640;1253;83519;-59
2023/04/10 08:22:44;;;;;;;27.30;21.00;;;;;;;11.38;92.06;101587.89;105920;1252;71932;-57
2023/04/10 08:25:21;;;;;;;26.60;22.30;;;;;;;11.53;91.66;101588.59;105702;1253;69355;-56
2023/04/10 08:27:58;;;;;;;31.20;23.10;;;;;;;11.56;91.03;101594.14;105745;1254;69212;-59
2023/04/10 08:30:47;;;;;;;26.20;21.30;;;;;;;11.55;90.01;101591.54;105901;1251;73188;-56
2023/04/10 08:33:41;;;;;;;34.20;23.60;;;;;;;11.54;89.96;101588.77;105673;1254;83378;-57
2023/04/10 08:36:21;;;;;;;28.30;20.70;;;;;;;11.45;88.96;101589.84;105723;1251;73763;-56
2023/04/10 08:39:15;;;;;;;25.60;19.50;;;;;;;11.34;89.10;101583.41;105665;1251;68956;-55
2023/04/10 08:41:51;;;;;;;26.30;19.40;;;;;;;11.43;89.48;101586.38;105661;1256;69186;-56
2023/04/10 08:44:44;;;;;;;24.30;19.40;;;;;;;11.47;89.57;101581.75;105641;1255;71357;-58
2023/04/10 08:47:37;;;;;;;27.50;20.40;;;;;;;11.45;88.97;101584.94;105507;1251;82858;-55
2023/04/10 08:50:22;;;;;;;26.70;20.70;;;;;;;11.51;89.75;101584.46;105479;1256;72847;-59
2023/04/10 08:53:13;;;;;;;27.70;21.20;;;;;;;11.68;89.95;101584.08;105689;1250;69220;-59
2023/04/10 08:55:45;;;;;;;;;;;;;;;11.80;89.52;101580.82;105502;1257;69706;-54
2023/04/10 08:58:33;;;;;;;26.30;20.90;;;;;;;11.88;89.21;101580.14;105527;1250;73236;-58
2023/04/10 09:01:10;;;;;;;28.70;20.60;;;;;;;11.93;88.92;101577.75;105657;1256;83031;-55
2023/04/10 09:03:47;;;;;;;26.70;18.60;;;;;;;11.99;88.65;101576.02;105653;1256;72806;-55
2023/04/10 09:06:29;;;;;;;23.20;17.50;;;;;;;12.05;88.26;101575.55;105507;1252;69189;-54
2023/04/10 09:09:17;;;;;;;20.50;16.40;;;;;;;12.01;87.58;101569.31;105601;1256;69199;-58
2023/04/10 09:12:02;;;;;;;27.20;19.80;;;;;;;12.02;87.29;101567.73;105648;1251;73378;-57
2023/04/10 09:14:40;;;;;;;31.10;23.30;;;;;;;12.09;87.32;101568.45;105593;1254;83464;-58
2023/04/10 09:17:29;;;;;;;;;;;;;;;12.30;87.71;101568.07;105557;1254;73869;-55
2023/04/10 09:20:04;;;;;;;22.60;17.90;;;;;;;12.58;87.28;101564.19;105620;1251;69143;-58
2023/04/10 09:22:47;;;;;;;23.30;18.40;;;;;;;12.81;87.14;101554.45;105540;1257;69606;-59
2023/04/10 09:25:37;;;;;;;22.00;17.80;;;;;;;13.13;86.45;101552.64;105516;1254;72165;-56
2023/04/10 09:28:11;;;;;;;23.20;18.60;;;;;;;13.49;85.93;101549.83;105843;1255;83487;-56
2023/04/10 09:30:48;;;;;;;24.20;19.40;;;;;;;13.81;85.80;101546.56;105835;1251;73525;-57
2023/04/10 09:33:26;;;;;;;23.40;18.90;;;;;;;14.17;85.31;101551.16;105541;1254;69221;-55
2023/04/10 09:36:02;;;;;;;22.70;19.20;;;;;;;14.46;84.15;101547.02;105570;1254;69067;-58
2023/04/10 09:38:37;;;;;;;22.00;18.50;;;;;;;14.52;82.71;101543.30;105762;1254;73311;-56
2023/04/10 09:41:09;;;;;;;24.30;18.70;;;;;;;14.47;82.01;101545.20;105559;1251;82352;-56
2023/04/10 09:43:45;;;;;;;22.60;20.00;;;;;;;14.41;81.43;101540.85;105716;1256;73735;-56
2023/04/10 09:46:25;;;;;;;23.40;19.20;;;;;;;14.30;80.83;101536.32;105500;1253;69266;-58
2023/04/10 09:48:58;;;;;;;22.70;18.30;;;;;;;14.19;80.47;101540.22;105534;1256;69212;-57
2023/04/10 09:51:31;;;;;;;20.30;17.60;;;;;;;14.10;80.34;101535.95;105620;1256;73189;-58
2023/04/10 09:54:03;;;;;;;26.80;18.40;;;;;;;14.03;80.09;101532.30;105549;1256;83523;-59
2023/04/10 09:56:35;;;;;;;22.20;16.70;;;;;;;13.97;79.52;101528.13;105503;1254;72672;-58
2023/04/10 09:59:07;;;;;;;20.80;17.10;;;;;;;13.94;79.53;101525.23;105916;1253;69190;-63
2023/04/10 10:01:38;;;;;;;22.60;18.70;;;;;;;13.94;79.33;101518.04;105529;1254;69138;-58
2023/04/10 10:04:14;;;;;;;22.70;17.90;;;;;;;13.84;78.76;101515.55;106532;1254;74186;-59
2023/04/10 10:06:43;;;;;;;22.10;18.30;;;;;;;13.90;79.08;101509.89;105634;1255;83395;-59
2023/04/10 10:09:15;;;;;;;22.80;18.80;;;;;;;14.24;79.66;101504.17;105682;1255;73560;-59
2023/04/10 10:11:51;;;;;;;19.80;16.80;;;;;;;14.67;79.45;101499.70;105615;1251;69169;-62
2023/04/10 10:14:21;;;;;;;22.20;18.50;;;;;;;15.15;79.21;101493.48;105457;1256;69253;-58
2023/04/10 10:16:50;;;;;;;26.80;19.30;;;;;;;15.55;78.11;101494.02;109472;1254;73165;-59
2023/04/10 10:19:26;;;;;;;20.90;17.90;;;;;;;15.93;77.49;101491.61;107733;1251;82848;-58
2023/04/10 10:21:54;;;;;;;19.80;16.30;;;;;;;16.30;77.04;101487.38;109405;1251;73595;-57
2023/04/10 10:24:22;;;;;;;18.30;15.70;;;;;;;16.68;76.90;101482.53;109435;1251;67187;-57
2023/04/10 10:26:51;;;;;;;19.50;16.80;;;;;;;17.10;75.74;101480.10;109484;1251;66840;-57
2023/04/10 10:29:20;;;;;;;17.50;15.60;;;;;;;17.36;74.60;101474.06;107169;1253;73161;-64
2023/04/10 10:31:48;;;;;;;19.80;17.20;;;;;;;17.53;73.52;101475.74;105754;1251;83888;-59
2023/04/10 10:34:17;;;;;;;18.90;16.70;;;;;;;17.46;72.98;101473.59;105544;1256;73838;-59
2023/04/10 10:36:45;;;;;;;20.90;15.80;;;;;;;17.18;71.94;101475.86;105615;1251;69084;-59
2023/04/10 10:39:52;;;;;;;17.60;15.80;;;;;;;16.89;71.67;101474.70;105621;1255;69121;-61
2023/04/10 10:42:40;;;;;;;19.50;17.20;;;;;;;16.47;71.12;101472.34;105616;1251;74191;-57
2023/04/10 10:45:12;;;;;;;18.80;16.80;;;;;;;16.12;71.00;101474.23;105800;1256;83622;-60
2023/04/10 10:47:48;;;;;;;22.40;16.60;;;;;;;15.90;71.24;101469.02;105642;1251;73829;-59
2023/04/10 10:50:17;;;;;;;18.80;16.30;;;;;;;15.75;71.30;101470.52;105632;1255;69168;-65
2023/04/10 10:52:51;;;;;;;19.40;16.30;;;;;;;15.65;71.62;101466.52;105618;1251;69451;-59
2023/04/10 10:55:38;;;;;;;19.30;17.10;;;;;;;15.59;71.66;101461.64;105625;1251;73999;-59
2023/04/10 10:58:08;;;;;;;20.80;18.20;;;;;;;15.94;72.47;101454.71;105642;1257;83297;-58
2023/04/10 11:00:49;;;;;;;19.20;17.20;;;;;;;16.50;72.53;101453.33;105668;1254;73737;-58
2023/04/10 11:03:18;;;;;;;17.80;15.80;;;;;;;16.93;71.58;101451.60;105651;1256;69125;-58
2023/04/10 11:05:51;;;;;;;17.30;15.50;;;;;;;16.95;70.32;101448.13;105649;1256;69189;-59
2023/04/10 11:08:48;;;;;;;18.40;16.00;;;;;;;17.05;69.94;101444.30;105617;1251;74069;-60
2023/04/10 11:11:24;;;;;;;17.60;15.20;;;;;;;17.50;69.55;101448.48;105681;1255;83562;-61
2023/04/10 11:13:55;;;;;;;17.50;15.20;;;;;;;17.83;68.84;101445.29;105636;1256;72722;-63
2023/04/10 11:16:30;;;;;;;18.40;16.40;;;;;;;18.15;68.94;101440.80;105601;1257;70444;-59
2023/04/10 11:19:05;;;;;;;16.90;14.70;;;;;;;18.46;67.81;101431.02;105676;1252;69167;-61
2023/04/10 11:21:58;;;;;;;18.90;15.70;;;;;;;18.71;67.24;101430.56;105639;1251;73991;-60
2023/04/10 11:24:27;;;;;;;17.50;13.90;;;;;;;18.78;66.03;101427.20;105647;1251;83421;-59
2023/04/10 11:26:55;;;;;;;16.30;14.50;;;;;;;18.94;65.60;101421.90;105679;1257;72853;-62
2023/04/10 11:29:26;;;;;;;16.30;14.60;;;;;;;18.96;65.08;101422.86;105668;1251;69080;-60
2023/04/10 11:31:56;;;;;;;16.90;15.20;;;;;;;18.98;64.93;101419.53;105581;1251;69186;-61
2023/04/10 11:34:26;;;;;;;14.70;13.30;;;;;;;19.19;65.21;101419.42;105688;1255;74160;-59
2023/04/10 11:36:55;;;;;;;14.30;12.80;;;;;;;19.59;64.79;101416.61;105617;1255;83385;-58
2023/04/10 11:39:25;;;;;;;16.00;12.90;;;;;;;19.87;63.85;101413.20;105623;1251;73762;-59
2023/04/10 11:41:56;;;;;;;13.90;12.50;;;;;;;20.01;63.09;101404.89;105547;1256;69207;-60
2023/04/10 11:44:24;;;;;;;13.30;11.90;;;;;;;20.11;62.19;101404.13;105576;1257;69150;-58
2023/04/10 11:46:53;;;;;;;13.70;12.40;;;;;;;20.13;61.62;101399.88;105602;1251;73966;-57
2023/04/10 11:49:28;;;;;;;13.50;12.20;;;;;;;20.28;62.01;101399.48;105649;1255;83590;-64
2023/04/10 11:51:56;;;;;;;13.10;11.80;;;;;;;20.52;61.37;101393.73;105546;1255;72814;-60
2023/04/10 11:54:27;;;;;;;13.70;11.90;;;;;;;20.74;61.71;101394.67;105865;1255;69229;-60
2023/04/10 11:57:08;;;;;;;12.30;11.10;;;;;;;20.99;61.07;101389.70;105785;1250;69205;-57
2023/04/10 11:59:36;;;;;;;12.70;11.40;;;;;;;21.04;59.72;101392.23;105690;1250;74204;-60
2023/04/10 12:02:07;;;;;;;12.70;10.60;;;;;;;21.11;59.78;101388.54;105695;1251;82523;-57
2023/04/10 12:04:36;;;;;;;11.90;10.70;;;;;;;21.39;59.44;101384.23;105632;1254;73889;-60
2023/04/10 12:07:05;;;;;;;12.00;10.80;;;;;;;21.51;58.44;101379.04;105698;1251;69099;-58
2023/04/10 12:09:33;;;;;;;12.00;10.70;;;;;;;21.50;57.79;101375.70;105655;1256;69176;-57
2023/04/10 12:12:04;;;;;;;12.30;11.00;;;;;;;21.49;57.28;101371.55;105645;1251;74070;-60
2023/04/10 12:14:33;;;;;;;12.60;11.00;;;;;;;21.68;57.26;101368.42;105796;1255;82238;-60
2023/04/10 12:17:02;;;;;;;13.40;12.00;;;;;;;21.84;56.61;101358.45;105710;1251;72812;-61
2023/04/10 12:19:30;;;;;;;;;;;;;;;21.79;55.95;101356.44;105756;1256;69570;-59
2023/04/10 12:22:01;;;;;;;11.90;10.70;;;;;;;21.85;55.80;101350.21;105613;1253;69126;-59
2023/04/10 12:24:39;;;;;;;12.20;11.00;;;;;;;21.87;55.36;101347.17;105754;1251;73989;-58
2023/04/10 12:27:21;;;;;;;10.50;9.40;;;;;;;22.02;55.33;101343.82;105604;1251;83367;-60
2023/04/10 12:29:51;;;;;;;11.40;10.00;;;;;;;22.27;54.83;101335.36;105604;1257;73633;-58
2023/04/10 12:32:19;;;;;;;12.10;10.80;;;;;;;22.29;53.95;101334.48;105629;1257;69218;-57
2023/04/10 12:34:50;;;;;;;11.90;10.70;;;;;;;22.13;53.58;101331.87;105651;1253;69251;-59
2023/04/10 12:37:19;;;;;;;10.40;9.20;;;;;;;22.08;53.51;101330.06;105817;1253;73131;-61
2023/04/10 12:39:47;;;;;;;11.40;10.30;;;;;;;22.24;53.30;101327.88;105721;1251;82229;-61
2023/04/10 12:42:18;;;;;;;10.30;9.20;;;;;;;22.45;53.49;101320.14;105624;1251;73738;-58
2023/04/10 12:44:54;;;;;;;10.70;9.70;;;;;;;22.79;53.34;101325.86;105665;1253;69191;-57
2023/04/10 12:47:23;;;;;;;11.10;9.90;;;;;;;23.06;52.98;101324.38;105651;1251;69185;-59
2023/04/10 12:50:12;;;;;;;11.60;10.40;;;;;;;23.24;52.29;101318.29;105739;1254;72829;-59
2023/04/10 12:52:44;;;;;;;11.00;10.00;;;;;;;23.36;51.61;101315.02;105629;1256;82957;-60
2023/04/10 12:55:13;;;;;;;11.40;9.30;;;;;;;23.52;51.07;101311.86;105620;1251;72761;-60
2023/04/10 12:57:43;;;;;;;10.30;9.30;;;;;;;23.62;50.71;101300.52;105644;1251;69109;-58
2023/04/10 13:00:14;;;;;;;10.00;9.10;;;;;;;23.73;50.30;101297.77;105717;1253;69202;-59
2023/04/10 13:02:43;;;;;;;11.10;10.00;;;;;;;23.77;49.83;101295.08;105659;1251;74069;-60
2023/04/10 13:05:13;;;;;;;10.00;9.00;;;;;;;23.83;49.31;101293.02;105736;1253;83312;-60
2023/04/10 13:07:41;;;;;;;12.00;9.40;;;;;;;23.94;49.29;101291.63;106017;1250;73352;-60
2023/04/10 13:10:09;;;;;;;10.20;9.20;;;;;;;24.10;48.99;101291.06;105702;1251;69090;-60
2023/04/10 13:12:39;;;;;;;10.30;9.30;;;;;;;24.24;48.70;101288.13;105658;1254;69229;-58
2023/04/10 13:15:07;;;;;;;;;;;;;;;24.31;48.01;101284.04;105675;1254;74361;-62
2023/04/10 13:17:36;;;;;;;10.20;9.20;;;;;;;24.20;47.40;101285.83;105667;1256;83272;-59
2023/04/10 13:20:05;;;;;;;10.00;9.00;;;;;;;24.05;47.30;101282.71;105547;1251;74107;-59
2023/04/10 13:22:33;;;;;;;8.80;7.90;;;;;;;23.97;47.09;101279.60;105624;1251;69198;-58
2023/04/10 13:25:03;;;;;;;10.90;9.80;;;;;;;23.75;46.86;101276.16;105587;1255;69278;-59
2023/04/10 13:27:31;;;;;;;9.80;8.90;;;;;;;23.32;46.70;101272.21;105638;1253;73143;-58
2023/04/10 13:30:00;;;;;;;9.90;8.90;;;;;;;23.21;46.89;101269.64;105658;1253;83223;-59
2023/04/10 13:32:28;;;;;;;10.50;9.20;;;;;;;23.37;46.60;101261.44;105605;1255;73682;-58
2023/04/10 13:34:56;;;;;;;10.20;9.20;;;;;;;22.97;45.91;101266.13;105651;1251;69099;-61
2023/04/10 13:37:25;;;;;;;9.90;8.90;;;;;;;22.35;45.88;101263.04;105950;1254;69220;-60
2023/04/10 13:39:53;;;;;;;10.20;9.10;;;;;;;21.88;46.17;101261.88;105677;1254;73117;-63
2023/04/10 13:42:22;;;;;;;10.10;9.20;;;;;;;21.64;46.12;101259.86;105587;1254;82840;-59
2023/04/10 13:44:50;;;;;;;9.20;8.30;;;;;;;21.57;46.07;101254.48;105548;1255;73125;-59
2023/04/10 13:47:18;;;;;;;9.70;8.80;;;;;;;21.33;46.45;101252.74;105578;1252;69212;-59
2023/04/10 13:49:46;;;;;;;10.60;9.50;;;;;;;21.54;46.87;101247.35;105766;1257;69131;-61
2023/04/10 13:52:15;;;;;;;10.80;9.80;;;;;;;21.73;47.09;101243.04;105982;1251;74049;-62
2023/04/10 13:54:43;;;;;;;14.00;9.70;;;;;;;22.02;47.01;101237.01;105813;1256;83079;-59
2023/04/10 13:57:11;;;;;;;10.20;9.10;;;;;;;22.35;46.87;101230.95;105577;1256;72761;-57
2023/04/10 13:59:40;;;;;;;10.30;9.30;;;;;;;22.76;46.92;101228.96;105586;1251;69197;-57
2023/04/10 14:02:08;;;;;;;9.90;8.90;;;;;;;23.08;46.59;101222.27;105660;1252;69112;-60
2023/04/10 14:04:36;;;;;;;11.40;10.20;;;;;;;22.94;45.99;101223.67;105678;1255;74384;-59
2023/04/10 14:07:05;;;;;;;11.50;10.30;;;;;;;22.48;45.61;101221.48;105634;1256;83494;-59
2023/04/10 14:09:33;;;;;;;11.80;10.60;;;;;;;22.20;45.71;101215.14;105642;1255;73533;-58
2023/04/10 14:12:02;;;;;;;11.30;10.30;;;;;;;22.08;45.90;101208.13;105700;1256;69281;-59
2023/04/10 14:14:30;;;;;;;12.50;11.00;;;;;;;22.07;45.86;101205.73;105620;1257;69192;-59